Time;durP1;ratioP1;P1;durP2;ratioP2;P2;SDS_P1;SDS_P2;PMS_P1;PMS_P2;Temp;Humidity;BMP_temperature;BMP_pressure;BME280_temperature;BME280_humidity;BME280_pressure;Samples;Min_cycle;Max_cycle;Signal;HPM_P1;HPM_P2
2022/01/20 00:00:20;;;;;;;5.20;3.10;;;2.40;99.90;;;;;;5053792;28;20048;-86
2022/01/20 00:03:11;;;;;;;7.15;3.08;;;2.40;99.90;;;;;;5055627;28;20021;-86
2022/01/20 00:06:25;;;;;;;5.70;3.05;;;2.40;99.90;;;;;;5074124;28;20447;-86
2022/01/20 00:28:14;;;;;;;8.93;3.35;;;2.40;99.90;;;;;;5074954;28;20043;-86
2022/01/20 00:30:52;;;;;;;5.88;3.30;;;2.40;99.90;;;;;;5074343;28;20025;-86
2022/01/20 00:33:32;;;;;;;6.00;3.53;;;2.40;99.90;;;;;;5038452;28;20053;-86
2022/01/20 00:38:47;;;;;;;7.30;4.00;;;2.40;99.90;;;;;;5054969;28;20033;-86
2022/01/20 00:41:16;;;;;;;5.97;2.97;;;2.40;99.90;;;;;;5021083;28;20028;-86
2022/01/20 00:43:43;;;;;;;7.73;3.40;;;2.40;99.90;;;;;;5036178;28;20033;-86
2022/01/20 00:46:11;;;;;;;6.78;3.35;;;2.40;99.90;;;;;;5036490;28;20040;-86
2022/01/20 00:48:40;;;;;;;4.60;2.75;;;2.40;99.90;;;;;;5035985;28;20029;-86
2022/01/20 00:51:09;;;;;;;5.05;3.17;;;2.40;99.90;;;;;;5036894;28;20124;-85
2022/01/20 00:53:34;;;;;;;7.40;3.88;;;2.50;99.90;;;;;;5036442;28;20021;-84
2022/01/20 00:56:01;;;;;;;9.35;3.67;;;2.50;99.90;;;;;;5036004;28;20099;-85
2022/01/20 00:58:33;;;;;;;5.43;3.20;;;2.50;99.90;;;;;;5053313;28;20021;-87
2022/01/20 01:01:02;;;;;;;6.45;3.83;;;2.50;99.90;;;;;;5036825;28;20053;-87
2022/01/20 01:03:27;;;;;;;6.00;3.55;;;2.50;99.90;;;;;;5039466;28;20052;-85
2022/01/20 01:06:17;;;;;;;9.18;4.35;;;2.50;99.90;;;;;;5023049;28;20040;-85
2022/01/20 01:08:44;;;;;;;7.40;3.67;;;2.50;99.90;;;;;;5040199;28;20021;-87
2022/01/20 01:11:10;;;;;;;9.75;4.43;;;2.50;99.90;;;;;;5036560;28;20515;-86
2022/01/20 01:13:36;;;;;;;9.73;3.97;;;2.50;99.90;;;;;;5052962;28;20036;-85
2022/01/20 01:16:06;;;;;;;7.85;3.92;;;2.60;99.90;;;;;;5056010;28;20155;-87
2022/01/20 01:21:29;;;;;;;10.55;3.80;;;2.60;99.90;;;;;;5047088;28;20083;-85
2022/01/20 01:23:55;;;;;;;7.93;4.10;;;2.60;99.90;;;;;;5074596;28;20013;-83
2022/01/20 01:26:28;;;;;;;6.35;4.35;;;2.60;99.90;;;;;;5059770;28;20059;-84
2022/01/20 01:28:56;;;;;;;6.70;4.15;;;2.60;99.90;;;;;;5077544;28;20016;-87
2022/01/20 01:34:00;;;;;;;9.88;4.80;;;2.60;99.90;;;;;;5043365;28;20028;-84
2022/01/20 01:36:47;;;;;;;8.20;4.43;;;2.60;99.90;;;;;;5059680;28;20029;-84
2022/01/20 01:39:21;;;;;;;9.30;4.68;;;2.60;99.90;;;;;;5044861;28;20389;-87
2022/01/20 01:41:47;;;;;;;10.68;4.82;;;2.60;99.90;;;;;;5058800;28;20102;-85
2022/01/20 01:44:20;;;;;;;9.95;4.82;;;2.60;99.90;;;;;;5059930;28;20112;-85
2022/01/20 01:46:50;;;;;;;10.55;4.78;;;2.60;99.90;;;;;;5043332;28;20059;-84
2022/01/20 01:49:21;;;;;;;11.30;5.03;;;2.60;99.90;;;;;;5059322;28;20036;-86
2022/01/20 01:51:47;;;;;;;8.52;4.57;;;2.60;99.90;;;;;;5077012;28;20028;-85
2022/01/20 01:54:16;;;;;;;8.80;4.57;;;2.70;99.90;;;;;;5042337;28;20089;-84
2022/01/20 01:56:42;;;;;;;11.27;4.95;;;2.70;99.90;;;;;;5058204;28;20074;-84
2022/01/20 01:59:15;;;;;;;10.45;5.20;;;2.60;99.90;;;;;;5076669;28;20024;-84
2022/01/20 02:01:47;;;;;;;11.30;6.03;;;2.70;99.90;;;;;;5042053;28;20037;-83
2022/01/20 02:04:37;;;;;;;9.63;4.47;;;2.70;99.90;;;;;;5058183;28;20051;-84
2022/01/20 02:20:42;;;;;;;9.63;4.85;;;2.70;99.90;;;;;;5075553;28;20047;-84
2022/01/20 02:23:08;;;;;;;14.30;6.15;;;2.70;99.90;;;;;;5024400;28;20481;-84
2022/01/20 02:25:36;;;;;;;13.85;6.38;;;2.80;99.90;;;;;;5057664;28;20036;-85
2022/01/20 02:28:15;;;;;;;15.98;6.75;;;2.80;99.90;;;;;;5075517;28;20044;-85
2022/01/20 02:30:45;;;;;;;22.20;6.95;;;2.70;99.90;;;;;;5024562;28;20033;-85
2022/01/20 02:33:17;;;;;;;16.35;7.07;;;2.80;99.90;;;;;;5024197;28;20021;-84
2022/01/20 02:35:54;;;;;;;16.80;7.30;;;2.80;99.90;;;;;;5056074;28;20108;-83
2022/01/20 02:38:39;;;;;;;15.27;7.30;;;2.80;99.90;;;;;;5075798;28;20046;-83
2022/01/20 02:46:41;;;;;;;17.65;6.93;;;2.80;99.90;;;;;;5046696;28;20405;-84
2022/01/20 02:49:13;;;;;;;15.45;7.35;;;2.80;99.90;;;;;;5024529;28;20117;-84
2022/01/20 02:51:51;;;;;;;15.75;7.70;;;2.80;99.90;;;;;;5074853;28;20062;-84
2022/01/20 02:54:20;;;;;;;15.75;7.80;;;2.80;99.90;;;;;;5056943;28;20033;-85
2022/01/20 02:56:49;;;;;;;20.92;8.38;;;2.80;99.90;;;;;;5055702;28;20051;-85
2022/01/20 02:59:15;;;;;;;21.45;8.68;;;2.90;99.90;;;;;;5075373;28;20051;-84
2022/01/20 03:01:51;;;;;;;23.83;8.45;;;2.90;99.90;;;;;;5040342;28;20063;-84
2022/01/20 03:04:24;;;;;;;16.00;7.60;;;2.80;99.90;;;;;;5039360;28;20032;-84
2022/01/20 03:06:50;;;;;;;18.05;8.90;;;2.80;99.90;;;;;;5056393;28;20043;-84
2022/01/20 03:09:16;;;;;;;18.15;7.85;;;2.80;99.90;;;;;;5039969;28;20032;-84
2022/01/20 03:11:42;;;;;;;20.77;8.48;;;2.80;99.90;;;;;;5047150;23;20421;-84
2022/01/20 03:14:10;;;;;;;16.50;8.13;;;2.80;99.90;;;;;;5070075;28;20063;-84
2022/01/20 03:16:37;;;;;;;17.98;8.43;;;2.80;99.90;;;;;;5057621;28;20112;-84
2022/01/20 03:19:03;;;;;;;20.88;9.75;;;2.80;99.90;;;;;;5038991;28;20037;-84
2022/01/20 03:21:31;;;;;;;19.58;9.00;;;2.80;99.90;;;;;;5034340;28;20422;-84
2022/01/20 03:23:57;;;;;;;16.20;8.10;;;2.70;99.90;;;;;;5035433;28;20029;-83
2022/01/20 03:26:23;;;;;;;18.02;8.48;;;2.70;99.90;;;;;;5037346;28;20043;-83
2022/01/20 03:28:50;;;;;;;16.85;8.13;;;2.70;99.90;;;;;;5053732;28;20024;-84
2022/01/20 03:31:19;;;;;;;18.00;7.90;;;2.60;99.90;;;;;;5053740;28;20024;-84
2022/01/20 03:33:45;;;;;;;21.40;8.77;;;2.50;99.90;;;;;;5037150;28;20047;-84
2022/01/20 03:36:13;;;;;;;17.48;7.97;;;2.50;99.90;;;;;;5036798;28;20033;-83
2022/01/20 03:38:39;;;;;;;20.02;7.22;;;2.40;99.90;;;;;;5038520;28;20135;-84
2022/01/20 03:41:04;;;;;;;21.90;9.13;;;2.30;99.90;;;;;;5057121;28;20115;-84
2022/01/20 03:43:33;;;;;;;20.27;8.07;;;2.30;99.90;;;;;;5056794;28;20056;-83
2022/01/20 03:46:00;;;;;;;18.95;8.80;;;2.30;99.90;;;;;;5048519;28;20029;-83
2022/01/20 03:48:38;;;;;;;18.92;8.82;;;2.30;99.90;;;;;;5016100;28;20127;-84
2022/01/20 03:51:10;;;;;;;19.55;8.73;;;2.30;99.90;;;;;;5049888;28;20411;-84
2022/01/20 03:53:38;;;;;;;22.40;9.15;;;2.20;99.90;;;;;;5053313;28;20037;-84
2022/01/20 03:56:04;;;;;;;26.92;10.27;;;2.30;99.90;;;;;;5036030;28;20040;-84
2022/01/20 03:58:33;;;;;;;20.20;8.73;;;2.30;99.90;;;;;;5045660;28;20502;-83
2022/01/20 04:00:59;;;;;;;23.90;9.35;;;2.30;99.90;;;;;;5039713;28;20055;-84
2022/01/20 04:03:25;;;;;;;25.52;9.40;;;2.30;99.90;;;;;;5016736;28;20031;-84
2022/01/20 04:05:57;;;;;;;22.27;8.93;;;2.30;99.90;;;;;;5023339;28;20033;-83
2022/01/20 04:08:29;;;;;;;19.67;8.77;;;2.40;99.90;;;;;;5036939;28;20048;-85
2022/01/20 04:10:55;;;;;;;25.15;8.52;;;2.40;99.90;;;;;;5053036;28;20078;-85
2022/01/20 04:13:21;;;;;;;21.67;9.50;;;2.40;99.90;;;;;;5036352;28;20434;-85
2022/01/20 04:15:49;;;;;;;23.38;8.73;;;2.40;99.90;;;;;;5046379;28;20398;-85
2022/01/20 04:18:23;;;;;;;24.77;10.20;;;2.40;99.90;;;;;;5055337;28;20097;-85
2022/01/20 04:20:52;;;;;;;17.30;7.35;;;2.30;99.90;;;;;;5057491;28;20213;-85
2022/01/20 04:23:18;;;;;;;19.10;7.55;;;2.30;99.90;;;;;;5041495;28;20131;-85
2022/01/20 04:25:44;;;;;;;20.77;8.07;;;2.20;99.90;;;;;;5057867;28;20074;-85
2022/01/20 04:28:09;;;;;;;20.65;7.68;;;2.10;99.90;;;;;;5036138;28;20490;-85
2022/01/20 04:30:36;;;;;;;21.08;7.70;;;2.10;99.90;;;;;;5032743;28;20029;-88
2022/01/20 04:33:02;;;;;;;16.40;6.85;;;2.00;99.90;;;;;;5024114;28;20120;-84
2022/01/20 04:35:34;;;;;;;20.15;7.28;;;1.90;99.90;;;;;;5019250;28;20119;-85
2022/01/20 04:38:00;;;;;;;18.80;7.35;;;1.90;99.90;;;;;;5052312;28;20029;-85
2022/01/20 04:40:26;;;;;;;17.98;6.28;;;1.80;99.90;;;;;;5036052;28;20084;-86
2022/01/20 04:42:52;;;;;;;25.35;7.18;;;1.80;99.90;;;;;;5036077;28;20060;-86
2022/01/20 04:45:29;;;;;;;13.68;6.55;;;1.70;99.90;;;;;;5036268;28;20035;-86
2022/01/20 04:58:43;;;;;;;16.40;5.72;;;1.50;99.90;;;;;;5075307;28;20116;-86
2022/01/20 05:01:10;;;;;;;11.63;4.72;;;1.50;99.90;;;;;;5054539;28;20024;-86
2022/01/20 05:03:35;;;;;;;15.25;4.80;;;1.50;99.90;;;;;;5036028;28;20050;-86
2022/01/20 05:06:04;;;;;;;11.93;4.40;;;1.40;99.90;;;;;;5035905;28;20111;-86
2022/01/20 05:08:36;;;;;;;16.52;4.82;;;1.40;99.90;;;;;;5035649;28;20479;-86
2022/01/20 05:11:05;;;;;;;13.05;4.00;;;1.40;99.90;;;;;;5036464;28;20040;-86
2022/01/20 05:13:37;;;;;;;10.90;4.25;;;1.30;99.90;;;;;;5018961;28;20527;-85
2022/01/20 05:16:08;;;;;;;14.05;4.50;;;1.30;99.90;;;;;;5047803;28;20694;-86
2022/01/20 05:18:34;;;;;;;16.27;4.55;;;1.30;99.90;;;;;;5071997;28;20051;-86
2022/01/20 05:21:03;;;;;;;11.50;4.35;;;1.30;99.90;;;;;;5055710;28;20459;-86
2022/01/20 05:23:29;;;;;;;11.45;4.15;;;1.20;99.90;;;;;;5048256;28;20595;-86
2022/01/20 05:25:55;;;;;;;15.18;4.55;;;1.20;99.90;;;;;;5072324;28;20115;-86
2022/01/20 05:28:21;;;;;;;13.25;3.85;;;1.20;99.90;;;;;;5055369;28;20035;-86
2022/01/20 05:30:46;;;;;;;12.95;4.25;;;1.10;99.90;;;;;;5055341;28;20402;-86
2022/01/20 05:33:12;;;;;;;9.05;3.20;;;1.10;99.90;;;;;;5055452;28;20040;-86
2022/01/20 05:35:38;;;;;;;16.42;4.05;;;1.10;99.90;;;;;;5072237;28;20090;-86
2022/01/20 05:38:04;;;;;;;13.43;4.30;;;1.10;99.90;;;;;;5055375;28;20487;-85
2022/01/20 05:40:34;;;;;;;8.88;3.17;;;1.10;99.90;;;;;;5055649;28;20115;-86
2022/01/20 05:43:01;;;;;;;7.93;3.33;;;1.10;99.90;;;;;;5056049;28;20029;-86
2022/01/20 05:45:27;;;;;;;11.43;4.22;;;1.10;99.90;;;;;;5067196;28;20029;-87
2022/01/20 05:48:07;;;;;;;19.83;4.35;;;1.10;99.90;;;;;;5018056;28;20046;-86
2022/01/20 05:50:33;;;;;;;18.25;4.03;;;1.10;99.90;;;;;;5037404;28;20495;-86
2022/01/20 05:52:58;;;;;;;12.38;4.03;;;1.10;99.90;;;;;;5035378;28;20044;-86
2022/01/20 05:55:27;;;;;;;11.65;3.47;;;1.10;99.90;;;;;;5035431;28;20029;-86
2022/01/20 05:57:54;;;;;;;15.10;4.38;;;1.20;99.90;;;;;;5035715;28;20029;-86
2022/01/20 06:00:23;;;;;;;13.35;4.65;;;1.20;99.90;;;;;;5035461;28;20033;-86
2022/01/20 06:05:33;;;;;;;12.32;4.25;;;1.20;99.90;;;;;;5065749;28;20039;-86
2022/01/20 06:07:59;;;;;;;17.50;4.50;;;1.20;99.90;;;;;;5051570;28;20036;-86
2022/01/20 06:10:25;;;;;;;20.38;4.80;;;1.20;99.90;;;;;;5071897;28;20062;-86
2022/01/20 06:12:51;;;;;;;26.50;4.55;;;1.20;99.90;;;;;;5058143;28;20040;-85
2022/01/20 06:15:17;;;;;;;14.00;4.57;;;1.20;99.90;;;;;;5058764;28;20536;-86
2022/01/20 06:17:42;;;;;;;17.00;4.53;;;1.20;99.90;;;;;;5075092;28;20031;-86
2022/01/20 06:20:13;;;;;;;12.75;4.18;;;1.20;99.90;;;;;;5058711;28;20379;-86
2022/01/20 06:22:39;;;;;;;9.80;3.92;;;1.30;99.90;;;;;;5055359;28;20036;-85
2022/01/20 06:25:06;;;;;;;13.25;3.97;;;1.30;99.90;;;;;;5045466;28;20411;-86
2022/01/20 06:27:36;;;;;;;12.10;4.15;;;1.30;99.90;;;;;;5075023;28;20401;-87
2022/01/20 06:30:10;;;;;;;13.65;4.18;;;1.30;99.90;;;;;;5058542;28;20031;-86
2022/01/20 06:32:36;;;;;;;15.25;3.95;;;1.30;99.90;;;;;;5051332;28;20043;-86
2022/01/20 06:35:03;;;;;;;20.52;4.53;;;1.30;99.90;;;;;;5064833;28;20025;-86
2022/01/20 06:37:32;;;;;;;7.40;3.65;;;1.30;99.90;;;;;;5038371;28;20028;-86
2022/01/20 06:39:57;;;;;;;6.78;3.80;;;1.30;99.90;;;;;;5038691;28;20403;-86
2022/01/20 06:42:33;;;;;;;19.05;5.00;;;1.30;99.90;;;;;;5038114;28;20032;-85
2022/01/20 06:44:59;;;;;;;15.32;4.65;;;1.30;99.90;;;;;;5038919;28;20044;-86
2022/01/20 06:47:24;;;;;;;9.68;4.38;;;1.20;99.90;;;;;;5037351;28;20040;-86
2022/01/20 06:49:50;;;;;;;17.90;5.18;;;1.20;99.90;;;;;;5038091;28;20214;-86
2022/01/20 06:52:19;;;;;;;14.25;4.18;;;1.20;99.90;;;;;;5037978;28;20029;-86
2022/01/20 06:54:45;;;;;;;14.63;4.85;;;1.10;99.90;;;;;;5038438;28;20490;-85
2022/01/20 06:57:12;;;;;;;11.93;4.20;;;1.10;99.90;;;;;;5037979;28;20036;-86
2022/01/20 06:59:47;;;;;;;11.52;4.97;;;1.10;99.90;;;;;;5038096;28;20035;-86
2022/01/20 07:02:12;;;;;;;14.93;4.78;;;1.00;99.90;;;;;;5038663;28;20037;-85
2022/01/20 07:04:38;;;;;;;12.30;4.28;;;1.00;99.90;;;;;;5037878;28;20029;-86
2022/01/20 07:07:06;;;;;;;23.90;4.40;;;1.00;99.90;;;;;;5054193;28;20048;-86
2022/01/20 07:09:41;;;;;;;17.63;4.15;;;1.00;99.90;;;;;;5037604;28;20063;-86
2022/01/20 07:12:11;;;;;;;18.80;4.57;;;1.00;99.90;;;;;;5053961;28;20128;-86
2022/01/20 07:14:38;;;;;;;17.20;4.55;;;1.00;99.90;;;;;;5054181;28;20032;-86
2022/01/20 07:17:05;;;;;;;18.20;4.05;;;1.00;99.90;;;;;;5062894;28;20033;-86
2022/01/20 07:19:32;;;;;;;22.42;5.38;;;1.10;99.90;;;;;;5053973;28;20055;-86
2022/01/20 07:21:57;;;;;;;14.63;3.78;;;1.10;99.90;;;;;;5037222;28;20053;-85
2022/01/20 07:24:30;;;;;;;23.65;5.32;;;1.20;99.90;;;;;;5060994;28;20063;-86
2022/01/20 07:26:57;;;;;;;16.60;3.65;;;1.20;99.90;;;;;;5045442;28;20071;-85
2022/01/20 07:29:31;;;;;;;18.67;4.35;;;1.20;99.90;;;;;;5054147;28;20032;-85
2022/01/20 07:31:59;;;;;;;15.80;3.83;;;1.30;99.90;;;;;;5070411;28;20024;-83
2022/01/20 07:34:25;;;;;;;11.35;4.13;;;1.30;99.90;;;;;;5067430;28;20025;-83
2022/01/20 07:36:51;;;;;;;10.63;3.95;;;1.30;99.90;;;;;;5037297;28;20032;-83
2022/01/20 07:39:17;;;;;;;16.25;4.28;;;1.30;99.90;;;;;;5053905;28;20037;-83
2022/01/20 07:41:43;;;;;;;15.77;4.07;;;1.30;99.90;;;;;;5040062;28;20123;-83
2022/01/20 07:44:14;;;;;;;15.00;5.03;;;1.30;99.90;;;;;;5091775;28;20456;-82
2022/01/20 07:46:40;;;;;;;21.23;4.25;;;1.20;99.90;;;;;;5057033;28;20032;-84
2022/01/20 07:49:09;;;;;;;16.17;4.25;;;1.20;99.90;;;;;;5056840;28;20027;-85
2022/01/20 07:51:34;;;;;;;17.65;3.50;;;1.20;99.90;;;;;;5046525;28;20041;-83
2022/01/20 07:54:04;;;;;;;30.88;4.78;;;1.20;99.90;;;;;;5016933;28;20400;-83
2022/01/20 07:56:30;;;;;;;25.10;4.03;;;1.20;99.90;;;;;;5017882;28;20602;-82
2022/01/20 07:58:56;;;;;;;15.85;4.05;;;1.20;99.90;;;;;;5050134;28;20116;-82
2022/01/20 08:01:24;;;;;;;20.13;4.80;;;1.20;99.90;;;;;;5017131;28;20051;-82
2022/01/20 08:04:01;;;;;;;24.63;4.10;;;1.20;99.90;;;;;;5049421;28;20025;-81
2022/01/20 08:06:30;;;;;;;16.63;3.65;;;1.20;99.90;;;;;;5017879;28;20029;-82
2022/01/20 08:08:56;;;;;;;20.17;4.55;;;1.30;99.90;;;;;;5016790;28;20171;-83
2022/01/20 08:11:25;;;;;;;18.75;3.85;;;1.30;99.90;;;;;;5033273;28;20123;-83
2022/01/20 08:13:50;;;;;;;24.23;4.03;;;1.30;99.90;;;;;;5073560;28;20030;-83
2022/01/20 08:16:17;;;;;;;16.95;4.20;;;1.30;99.90;;;;;;5056274;28;20044;-82
2022/01/20 08:18:45;;;;;;;16.63;4.10;;;1.30;99.90;;;;;;5054529;28;20278;-82
2022/01/20 08:21:11;;;;;;;20.17;3.88;;;1.30;99.90;;;;;;5033016;28;20115;-82
2022/01/20 08:23:37;;;;;;;12.00;4.28;;;1.40;99.90;;;;;;5016540;28;20539;-82
2022/01/20 08:26:03;;;;;;;18.10;4.07;;;1.40;99.90;;;;;;5016391;28;20025;-82
2022/01/20 08:28:30;;;;;;;9.20;3.45;;;1.50;99.90;;;;;;5022155;28;20020;-82
2022/01/20 08:30:59;;;;;;;12.18;3.90;;;1.60;99.90;;;;;;5072504;28;20040;-83
2022/01/20 08:33:25;;;;;;;17.75;4.18;;;1.60;99.90;;;;;;5015790;28;20037;-83
2022/01/20 08:35:50;;;;;;;20.55;3.75;;;1.70;99.90;;;;;;5033781;28;20024;-83
2022/01/20 08:38:16;;;;;;;16.02;3.97;;;1.70;99.90;;;;;;5069190;28;20115;-82
2022/01/20 08:40:44;;;;;;;18.20;3.80;;;1.80;99.90;;;;;;5052579;28;20036;-82
2022/01/20 08:43:13;;;;;;;18.83;3.42;;;1.80;99.90;;;;;;5019175;28;20068;-82
2022/01/20 08:45:39;;;;;;;16.05;3.88;;;1.90;99.90;;;;;;5016835;28;20025;-83
2022/01/20 08:48:05;;;;;;;11.57;4.13;;;1.90;99.90;;;;;;5015949;28;20033;-83
2022/01/20 08:50:32;;;;;;;14.07;3.55;;;1.90;99.90;;;;;;5029341;28;20085;-82
2022/01/20 08:53:01;;;;;;;21.30;4.35;;;1.90;99.90;;;;;;5072345;28;20024;-83
2022/01/20 08:55:27;;;;;;;16.58;4.13;;;1.90;99.90;;;;;;5055811;28;20482;-83
2022/01/20 08:57:55;;;;;;;25.50;4.75;;;2.00;99.90;;;;;;5072416;28;20020;-83
2022/01/20 09:00:25;;;;;;;12.40;4.50;;;2.00;99.90;;;;;;5072289;28;20051;-82
2022/01/20 09:02:54;;;;;;;11.65;4.05;;;2.00;99.90;;;;;;5055451;28;20506;-83
2022/01/20 09:05:19;;;;;;;12.75;4.50;;;2.00;99.90;;;;;;5056700;28;20032;-83
2022/01/20 09:07:45;;;;;;;15.65;4.28;;;2.10;99.90;;;;;;5052655;28;20040;-83
2022/01/20 09:10:18;;;;;;;20.13;4.80;;;2.10;99.90;;;;;;5050508;28;20498;-82
2022/01/20 09:15:46;;;;;;;16.23;5.07;;;2.20;99.90;;;;;;5090436;28;20024;-84
2022/01/20 09:18:08;;;;;;;14.05;5.07;;;2.20;99.90;;;;;;5048902;28;20048;-83
2022/01/20 09:20:35;;;;;;;22.80;5.20;;;2.30;99.90;;;;;;5032209;28;20057;-82
2022/01/20 09:23:06;;;;;;;20.40;5.53;;;2.30;99.90;;;;;;5032223;28;20029;-82
2022/01/20 09:25:32;;;;;;;;;;;2.30;99.90;;;;;;5032747;28;20066;-83
2022/01/20 09:28:02;;;;;;;18.20;4.60;;;2.50;99.90;;;;;;5047211;28;20007;-83
2022/01/20 09:30:31;;;;;;;;;;;2.50;99.90;;;;;;5032726;28;20610;-82
2022/01/20 09:35:45;;;;;;;13.90;4.35;;;2.90;99.90;;;;;;5034256;28;20051;-83
2022/01/20 09:38:12;;;;;;;12.38;3.85;;;3.20;99.90;;;;;;5060500;28;20031;-83
2022/01/20 09:40:39;;;;;;;19.35;4.22;;;3.50;99.90;;;;;;5055665;28;20048;-83
2022/01/20 09:43:11;;;;;;;10.15;3.47;;;3.70;99.90;;;;;;5055358;28;20398;-83
2022/01/20 09:45:38;;;;;;;12.02;3.35;;;3.70;99.90;;;;;;5055745;28;20048;-84
2022/01/20 09:48:04;;;;;;;13.23;3.85;;;3.70;99.90;;;;;;5038912;28;20119;-84
2022/01/20 09:50:30;;;;;;;14.57;3.72;;;3.60;99.90;;;;;;5072456;28;20032;-83
2022/01/20 09:52:59;;;;;;;12.10;3.17;;;3.50;99.90;;;;;;5072310;28;20031;-83
2022/01/20 09:55:28;;;;;;;17.23;3.90;;;3.50;99.90;;;;;;5072269;28;20479;-83
2022/01/20 09:57:54;;;;;;;9.68;2.97;;;3.50;99.90;;;;;;5072214;28;20016;-83
2022/01/20 10:00:20;;;;;;;12.93;3.03;;;3.60;99.90;;;;;;5041158;28;20492;-83
2022/01/20 10:03:09;;;;;;;13.32;3.42;;;3.70;99.90;;;;;;5035483;28;20064;-83
2022/01/20 10:05:51;;;;;;;25.25;4.32;;;3.80;99.90;;;;;;5052238;28;20056;-83
2022/01/20 10:08:29;;;;;;;10.38;2.95;;;4.00;99.90;;;;;;5019174;28;20036;-83
2022/01/20 10:11:09;;;;;;;12.27;3.40;;;4.10;99.90;;;;;;5003348;28;20028;-83
2022/01/20 10:13:45;;;;;;;10.70;3.30;;;4.10;99.90;;;;;;5035836;28;20554;-83
2022/01/20 10:16:20;;;;;;;12.40;2.42;;;4.30;99.90;;;;;;5035875;28;20072;-83
2022/01/20 10:18:48;;;;;;;9.55;2.33;;;4.40;99.90;;;;;;5038359;28;20032;-83
2022/01/20 10:21:25;;;;;;;17.15;3.00;;;4.40;99.90;;;;;;5038631;28;20036;-83
2022/01/20 10:24:03;;;;;;;12.52;2.15;;;4.40;99.90;;;;;;5055250;28;20394;-83
2022/01/20 10:26:32;;;;;;;9.40;2.40;;;4.40;99.90;;;;;;5055217;28;20054;-83
2022/01/20 10:29:10;;;;;;;8.63;1.52;;;4.20;99.90;;;;;;5038728;28;20025;-83
2022/01/20 10:31:40;;;;;;;7.05;1.63;;;3.90;99.90;;;;;;5009814;28;20514;-83
2022/01/20 10:34:32;;;;;;;6.82;1.45;;;3.40;99.90;;;;;;5036593;28;20056;-83
2022/01/20 10:37:02;;;;;;;4.00;1.02;;;3.00;99.90;;;;;;5035426;28;20025;-83
2022/01/20 10:39:32;;;;;;;3.90;1.33;;;2.80;99.90;;;;;;5053180;28;20028;-84
2022/01/20 10:42:13;;;;;;;4.85;1.33;;;2.70;99.90;;;;;;5034965;28;20090;-82
2022/01/20 10:44:47;;;;;;;;;;;2.80;99.90;;;;;;5035404;28;20029;-83
2022/01/20 10:47:19;;;;;;;11.15;1.40;;;2.80;99.90;;;;;;5034465;28;20003;-83
2022/01/20 10:49:46;;;;;;;8.98;1.75;;;2.90;99.90;;;;;;5034539;28;20033;-83
2022/01/20 10:52:19;;;;;;;9.73;1.50;;;2.90;99.90;;;;;;5033063;28;20436;-82
2022/01/20 10:54:52;;;;;;;11.82;1.67;;;2.90;99.90;;;;;;5058239;28;20028;-83
2022/01/20 10:57:30;;;;;;;11.00;1.73;;;2.90;99.90;;;;;;5073754;28;20054;-83
2022/01/20 10:59:59;;;;;;;8.55;1.63;;;2.90;99.90;;;;;;5074635;28;20032;-83
2022/01/20 11:02:29;;;;;;;15.80;2.10;;;2.90;99.90;;;;;;5046663;28;20059;-83
2022/01/20 11:04:55;;;;;;;7.67;2.17;;;2.90;99.90;;;;;;5018364;28;20530;-83
2022/01/20 11:07:25;;;;;;;4.93;1.38;;;2.90;99.90;;;;;;5049725;28;20044;-83
2022/01/20 11:10:03;;;;;;;15.80;2.05;;;2.90;99.90;;;;;;5018009;28;20031;-83
2022/01/20 11:12:30;;;;;;;6.45;1.60;;;2.80;99.90;;;;;;5019200;28;20381;-83
2022/01/20 11:14:57;;;;;;;7.25;1.30;;;2.90;99.90;;;;;;5024245;28;20033;-83
2022/01/20 11:17:27;;;;;;;7.72;1.60;;;2.90;99.90;;;;;;5057541;28;20127;-83
2022/01/20 11:19:57;;;;;;;12.57;2.08;;;2.80;99.90;;;;;;5074154;28;20109;-83
2022/01/20 11:22:22;;;;;;;10.90;1.75;;;2.70;99.90;;;;;;5069727;28;20023;-83
2022/01/20 11:25:00;;;;;;;17.08;2.00;;;2.70;99.90;;;;;;5042403;28;20036;-84
2022/01/20 11:27:42;;;;;;;8.35;1.73;;;2.70;99.90;;;;;;5053750;28;20115;-83
2022/01/20 11:30:26;;;;;;;8.43;2.10;;;2.90;99.90;;;;;;5037769;28;20125;-83
2022/01/20 11:33:05;;;;;;;9.70;1.52;;;3.10;99.90;;;;;;5057209;28;20063;-83
2022/01/20 11:35:39;;;;;;;5.05;1.27;;;3.30;99.90;;;;;;5073991;28;20059;-83
2022/01/20 11:38:16;;;;;;;13.15;1.63;;;3.40;99.90;;;;;;5073640;28;20024;-83
2022/01/20 11:40:57;;;;;;;1.95;0.85;;;3.60;99.90;;;;;;5058153;28;20073;-83
2022/01/20 11:43:35;;;;;;;7.65;0.95;;;3.60;99.90;;;;;;5073580;28;20026;-84
2022/01/20 11:46:21;;;;;;;5.53;1.50;;;3.70;99.90;;;;;;5073669;28;20028;-83
2022/01/20 11:49:09;;;;;;;8.27;1.23;;;3.70;99.90;;;;;;5071882;28;20047;-82
2022/01/20 11:51:55;;;;;;;8.35;1.52;;;3.70;99.90;;;;;;5057360;28;20032;-83
2022/01/20 11:54:24;;;;;;;5.20;1.58;;;3.60;99.90;;;;;;5052228;28;20162;-83
2022/01/20 11:56:50;;;;;;;6.40;0.98;;;3.70;99.90;;;;;;5053180;28;20062;-83
2022/01/20 11:59:20;;;;;;;9.23;1.17;;;3.70;99.90;;;;;;5053348;28;20448;-83
2022/01/20 12:01:54;;;;;;;4.45;1.20;;;3.80;99.90;;;;;;5052946;28;20071;-83
2022/01/20 12:04:37;;;;;;;8.85;1.52;;;3.90;99.90;;;;;;5053483;28;20028;-83
2022/01/20 12:07:04;;;;;;;5.13;1.30;;;3.90;99.90;;;;;;5036821;28;20039;-83
2022/01/20 12:09:38;;;;;;;5.85;1.48;;;3.90;99.90;;;;;;5035752;28;20491;-83
2022/01/20 12:12:26;;;;;;;9.65;1.25;;;3.80;99.90;;;;;;5036423;28;20062;-83
2022/01/20 12:14:52;;;;;;;4.15;0.73;;;3.70;98.60;;;;;;5050682;28;20033;-83
2022/01/20 12:17:19;;;;;;;6.60;1.48;;;3.70;99.90;;;;;;5032956;28;20052;-82
2022/01/20 12:19:54;;;;;;;6.15;1.27;;;3.60;99.90;;;;;;5033163;28;20029;-82
2022/01/20 12:22:20;;;;;;;6.20;1.25;;;3.60;99.90;;;;;;5032987;28;20040;-83
2022/01/20 12:24:54;;;;;;;11.50;1.20;;;3.50;99.20;;;;;;5049680;28;20082;-83
2022/01/20 12:27:22;;;;;;;6.43;1.20;;;3.40;99.10;;;;;;5033331;28;20175;-82
2022/01/20 12:29:48;;;;;;;7.25;1.27;;;3.40;99.90;;;;;;5033169;28;20453;-83
2022/01/20 12:32:19;;;;;;;11.95;1.73;;;3.30;98.20;;;;;;5032928;28;20032;-82
2022/01/20 12:34:55;;;;;;;;;;;3.30;98.70;;;;;;5035794;28;20025;-83
2022/01/20 12:37:21;;;;;;;5.95;1.17;;;3.20;97.00;;;;;;5052504;28;19904;-83
2022/01/20 12:39:47;;;;;;;7.25;1.00;;;3.30;96.10;;;;;;5052635;28;20119;-83
2022/01/20 12:42:13;;;;;;;6.88;1.15;;;3.30;96.10;;;;;;5036125;28;20119;-83
2022/01/20 12:44:50;;;;;;;8.52;1.42;;;3.30;96.00;;;;;;5036045;28;20547;-83
2022/01/20 12:47:26;;;;;;;9.30;1.00;;;3.30;96.20;;;;;;5036154;28;20062;-83
2022/01/20 12:50:00;;;;;;;5.75;1.45;;;3.30;93.70;;;;;;5057875;28;20020;-83
2022/01/20 12:52:27;;;;;;;7.05;1.05;;;3.30;92.00;;;;;;5034480;28;20036;-82
2022/01/20 12:54:56;;;;;;;0.90;0.50;;;3.30;92.50;;;;;;5052635;28;20025;-83
2022/01/20 12:57:22;;;;;;;3.80;0.70;;;3.30;92.60;;;;;;5036028;28;20024;-83
2022/01/20 12:59:50;;;;;;;4.07;0.85;;;3.30;93.80;;;;;;5035843;28;20036;-83
2022/01/20 13:02:24;;;;;;;2.92;1.65;;;3.30;94.50;;;;;;5035946;28;20032;-83
2022/01/20 13:05:06;;;;;;;5.65;0.98;;;3.30;93.70;;;;;;5032773;28;20039;-83
2022/01/20 13:07:37;;;;;;;6.32;1.05;;;3.30;91.80;;;;;;5032376;28;20021;-83
2022/01/20 13:10:20;;;;;;;7.93;0.88;;;3.40;92.30;;;;;;5032850;28;20029;-83
2022/01/20 13:12:46;;;;;;;8.18;0.68;;;3.40;90.30;;;;;;5033383;28;20399;-83
2022/01/20 13:15:21;;;;;;;8.05;1.23;;;3.40;84.30;;;;;;5016000;28;20110;-83
2022/01/20 13:17:48;;;;;;;6.70;1.13;;;3.30;80.90;;;;;;5048542;28;20032;-83
2022/01/20 13:20:21;;;;;;;4.75;0.80;;;3.20;83.50;;;;;;5033399;28;20044;-83
2022/01/20 13:22:56;;;;;;;4.38;1.00;;;3.10;84.40;;;;;;5052742;28;20033;-82
2022/01/20 13:25:28;;;;;;;3.63;0.70;;;3.00;86.00;;;;;;5053035;28;20029;-82
2022/01/20 13:28:04;;;;;;;7.28;0.60;;;3.00;87.30;;;;;;5037891;28;20056;-84
2022/01/20 13:30:33;;;;;;;7.00;0.98;;;3.10;87.00;;;;;;5039140;28;20040;-83
2022/01/20 13:32:59;;;;;;;2.72;0.93;;;3.10;88.30;;;;;;5056105;28;20052;-83
2022/01/20 13:35:41;;;;;;;9.02;1.40;;;3.20;90.10;;;;;;5039686;28;20126;-83
2022/01/20 13:38:08;;;;;;;6.75;1.13;;;3.20;87.60;;;;;;5056079;28;20392;-83
2022/01/20 13:40:36;;;;;;;5.97;0.95;;;3.30;86.50;;;;;;5055922;28;20020;-84
2022/01/20 13:45:54;;;;;;;10.63;1.15;;;3.40;88.40;;;;;;5066456;28;20750;-84
2022/01/20 13:48:34;;;;;;;1.92;0.50;;;3.40;86.90;;;;;;5035867;28;20030;-83
2022/01/20 13:51:03;;;;;;;2.03;0.65;;;3.50;89.40;;;;;;5056830;28;20097;-84
2022/01/20 13:53:30;;;;;;;3.20;0.63;;;3.50;86.10;;;;;;5059394;28;20021;-84
2022/01/20 13:56:01;;;;;;;3.00;0.90;;;3.60;86.00;;;;;;5036843;28;20119;-83
2022/01/20 13:58:34;;;;;;;9.10;0.82;;;3.70;85.60;;;;;;5035753;28;20052;-84
2022/01/20 14:01:08;;;;;;;6.72;1.17;;;3.80;90.10;;;;;;5019642;28;20551;-84
2022/01/20 14:03:39;;;;;;;8.57;1.45;;;3.90;90.10;;;;;;5019957;28;20557;-84
2022/01/20 14:06:06;;;;;;;7.18;0.77;;;4.00;86.10;;;;;;5035597;28;20029;-84
2022/01/20 14:08:36;;;;;;;2.83;0.65;;;4.10;81.90;;;;;;5003060;28;20480;-84
2022/01/20 14:11:03;;;;;;;5.68;0.95;;;4.10;81.40;;;;;;5035306;28;20115;-84
2022/01/20 14:13:28;;;;;;;4.15;1.00;;;4.10;81.30;;;;;;5019069;28;20064;-84
2022/01/20 14:15:55;;;;;;;9.07;1.20;;;4.20;83.20;;;;;;5002643;28;20068;-84